KPLR/PLR METAR and TAF weather

Enter ICAO airport designator
Station Type Date Time Source
KPLR METAR 2020/01/24 09:35 UTC NOAA

KPLR 240935Z AUTO 00000KT 10SM OVC010 09/09 A2994 RMK A01


Station Type Date Time Source
KPLR Decoded METAR 2020/01/24 09:35 UTC NOAA

Station name not available
Jan 24, 2020 - 04:35 AM EST / 2020.01.24 0935 UTC
Wind: Calm:0
Visibility: 10 mile(s):0
Sky conditions: overcast
Temperature: 48 F (9 C)
Dew Point: 48 F (9 C)
Relative Humidity: 100%
Pressure (altimeter): 29.94 in. Hg (1013 hPa)
ob: KPLR 240935Z AUTO 00000KT 10SM OVC010 09/09 A2994 RMK A01
cycle: 9

Station Type Date Time Source
KPLR TAF UTC NOAA

Error!

Example: see airport list